createdAt,value
2017-06-30T12:53:31.358Z,335
2017-06-30T12:54:33.056Z,355
2017-06-30T12:55:58.661Z,345
2017-06-30T12:57:00.048Z,335
2017-06-30T13:25:38.585Z,270
2017-06-30T13:26:40.054Z,245
2017-06-30T13:28:01.769Z,225
2017-06-30T13:29:03.177Z,195
2017-06-30T13:30:04.824Z,165
2017-06-30T13:31:06.232Z,135
2017-06-30T13:32:07.640Z,110
2017-06-30T13:33:09.143Z,95
2017-06-30T13:34:10.551Z,90
2017-06-30T13:35:11.962Z,80
2017-06-30T13:36:13.485Z,70
2017-06-30T13:37:14.896Z,70
2017-06-30T13:38:16.300Z,70
2017-06-30T13:39:17.782Z,65
2017-06-30T13:40:19.192Z,65
2017-06-30T13:41:20.603Z,60
2017-06-30T13:42:22.104Z,65
2017-06-30T13:43:23.514Z,65
2017-06-30T13:44:24.917Z,75
2017-06-30T13:45:26.862Z,85
2017-06-30T13:46:28.272Z,105
2017-06-30T13:47:30.080Z,125
2017-06-30T13:48:31.565Z,150
2017-06-30T13:49:32.980Z,175
2017-06-30T13:50:34.387Z,185
2017-06-30T13:51:35.885Z,175
2017-06-30T13:52:37.299Z,180
2017-06-30T13:53:38.701Z,180
2017-06-30T13:54:40.528Z,170
2017-06-30T13:55:41.966Z,160
2017-06-30T13:56:43.377Z,165
2017-06-30T13:57:44.937Z,170
2017-06-30T13:58:46.346Z,170
2017-06-30T13:59:47.817Z,180
2017-06-30T14:00:49.235Z,185
2017-06-30T14:01:50.647Z,190
2017-06-30T14:02:52.140Z,195
2017-06-30T14:03:53.553Z,200
2017-06-30T14:04:54.965Z,205
2017-06-30T14:05:56.460Z,210
2017-06-30T14:06:57.870Z,220
2017-06-30T14:07:59.270Z,225
2017-06-30T14:09:00.780Z,235
2017-06-30T14:10:02.197Z,255
2017-06-30T14:11:03.612Z,275
2017-06-30T14:12:05.486Z,295
2017-06-30T14:13:06.926Z,305
2017-06-30T14:14:08.392Z,300
2017-06-30T14:15:10.191Z,300
2017-06-30T14:16:11.681Z,305
2017-06-30T14:17:13.098Z,315
2017-06-30T14:18:14.564Z,320
2017-06-30T14:19:15.977Z,320
2017-06-30T14:20:17.826Z,320
2017-06-30T14:21:19.232Z,330
2017-06-30T14:22:20.733Z,330
2017-06-30T14:23:22.197Z,330
2017-06-30T14:24:23.835Z,325
2017-06-30T14:25:25.274Z,315
2017-06-30T14:26:26.904Z,310
2017-06-30T14:27:28.315Z,300
2017-06-30T14:28:29.743Z,285
2017-06-30T14:29:31.619Z,270
2017-06-30T14:30:33.030Z,245
2017-06-30T14:31:34.442Z,220
2017-06-30T14:32:35.955Z,215
2017-06-30T14:33:37.386Z,225
2017-06-30T14:34:38.812Z,240
2017-06-30T14:35:40.280Z,255
2017-06-30T14:36:41.694Z,275
2017-06-30T14:37:43.100Z,290
2017-06-30T14:38:44.598Z,305
2017-06-30T14:39:46.005Z,320
2017-06-30T14:40:47.410Z,325
2017-06-30T14:41:48.919Z,315
2017-06-30T14:42:50.330Z,300
2017-06-30T14:43:51.734Z,305
2017-06-30T14:44:53.247Z,300
2017-06-30T14:45:54.656Z,290
2017-06-30T14:46:57.114Z,275
2017-06-30T14:47:58.583Z,260
2017-06-30T14:48:59.989Z,250
2017-06-30T14:50:01.395Z,240
2017-06-30T14:51:02.903Z,235
2017-06-30T14:52:04.313Z,220
2017-06-30T14:53:06.104Z,190
2017-06-30T14:54:07.627Z,130
2017-06-30T14:55:09.043Z,95
2017-06-30T14:56:10.449Z,85
2017-06-30T14:57:11.938Z,80
2017-06-30T14:58:13.731Z,90
2017-06-30T14:59:15.238Z,115
2017-06-30T15:00:16.653Z,140
2017-06-30T15:01:18.120Z,170
2017-06-30T15:02:19.526Z,195
2017-06-30T15:03:20.933Z,200
2017-06-30T15:04:24.793Z,205
2017-06-30T15:05:26.186Z,200
2017-06-30T15:06:27.595Z,190
2017-06-30T15:07:29.223Z,185
2017-06-30T15:08:30.631Z,180
2017-06-30T15:09:32.103Z,185
2017-06-30T15:10:33.508Z,185
2017-06-30T15:11:34.996Z,190
2017-06-30T15:12:36.403Z,195
2017-06-30T15:13:37.813Z,200
2017-06-30T15:14:39.316Z,215
2017-06-30T15:15:40.728Z,230
2017-06-30T15:16:42.136Z,245
2017-06-30T15:17:43.627Z,245
2017-06-30T15:18:45.038Z,240
2017-06-30T15:19:46.446Z,235
2017-06-30T15:20:47.947Z,230
2017-06-30T15:21:49.357Z,230
2017-06-30T15:22:50.767Z,235
2017-06-30T15:23:52.272Z,250
2017-06-30T15:24:53.678Z,255
2017-06-30T15:25:55.150Z,270
2017-06-30T15:26:56.558Z,265
2017-06-30T15:27:58.030Z,240
2017-06-30T15:28:59.438Z,230
2017-06-30T15:30:00.850Z,215
2017-06-30T15:31:02.353Z,205
2017-06-30T15:32:03.770Z,215
2017-06-30T15:33:05.179Z,220
2017-06-30T15:34:06.674Z,220
2017-06-30T15:35:08.083Z,220
2017-06-30T15:36:09.557Z,215
2017-06-30T15:37:10.967Z,210
2017-06-30T15:38:12.436Z,210
2017-06-30T15:39:13.843Z,210
2017-06-30T15:40:15.317Z,220
2017-06-30T15:41:16.726Z,215
2017-06-30T15:42:18.197Z,205
2017-06-30T15:43:19.604Z,200
2017-06-30T15:44:21.079Z,200
2017-06-30T15:45:22.487Z,200
2017-06-30T15:46:23.961Z,195
2017-06-30T15:47:25.369Z,185
2017-06-30T15:48:26.779Z,170
2017-06-30T15:49:28.487Z,165
2017-06-30T15:50:29.897Z,170
2017-06-30T15:51:31.308Z,175
2017-06-30T15:52:32.811Z,180
2017-06-30T15:53:34.217Z,185
2017-06-30T15:54:35.627Z,185
2017-06-30T15:55:37.127Z,185
2017-06-30T15:56:38.538Z,180
2017-06-30T15:57:40.008Z,175
2017-06-30T15:58:41.420Z,165
2017-06-30T15:59:42.893Z,155
2017-06-30T16:00:44.299Z,155
2017-06-30T16:01:45.773Z,160
2017-06-30T16:02:47.183Z,175
2017-06-30T16:03:48.592Z,180
2017-06-30T16:04:50.095Z,180
2017-06-30T16:05:51.503Z,165
2017-06-30T16:06:52.908Z,150
2017-06-30T16:07:54.418Z,130
2017-06-30T16:08:55.824Z,120
2017-06-30T16:09:57.232Z,115
2017-06-30T16:10:58.737Z,110
2017-06-30T16:12:00.148Z,105
2017-06-30T16:13:01.619Z,105
2017-06-30T16:14:03.027Z,100
2017-06-30T16:15:04.499Z,100
2017-06-30T16:16:05.915Z,100
2017-06-30T16:17:07.381Z,100
2017-06-30T16:18:08.791Z,105
2017-06-30T16:19:10.198Z,110
2017-06-30T16:20:11.703Z,115
2017-06-30T16:21:13.113Z,115
2017-06-30T16:22:14.521Z,120
2017-06-30T16:23:16.025Z,120
2017-06-30T16:24:17.454Z,120
2017-06-30T16:25:18.865Z,125
2017-06-30T16:26:20.350Z,125
2017-06-30T16:27:21.757Z,125
2017-06-30T16:28:23.160Z,125
2017-06-30T16:29:24.667Z,130
2017-06-30T16:30:26.075Z,135
2017-06-30T16:31:27.485Z,135
2017-06-30T16:32:28.989Z,140
2017-06-30T16:33:30.400Z,140
2017-06-30T16:34:31.812Z,140
2017-06-30T16:35:33.310Z,140
2017-06-30T16:36:34.718Z,140
2017-06-30T16:37:36.191Z,140
2017-06-30T16:38:37.601Z,135
2017-06-30T16:39:39.072Z,135
2017-06-30T16:40:40.483Z,135
2017-06-30T16:41:41.955Z,135
2017-06-30T16:42:43.364Z,135
2017-06-30T16:43:44.839Z,135
2017-06-30T16:44:46.245Z,135
2017-06-30T16:45:47.657Z,135
2017-06-30T16:46:49.156Z,130
2017-06-30T16:47:50.568Z,130
2017-06-30T16:48:51.978Z,135
2017-06-30T16:49:53.478Z,135
2017-06-30T16:50:54.884Z,135
2017-06-30T16:51:56.359Z,135
2017-06-30T16:52:57.770Z,140
2017-06-30T16:53:59.181Z,135
2017-06-30T16:55:00.680Z,130
2017-06-30T16:56:02.091Z,130
2017-06-30T16:57:03.497Z,125
2017-06-30T16:58:05.001Z,125
2017-06-30T16:59:06.411Z,125
2017-06-30T17:00:07.812Z,125
2017-06-30T17:01:09.323Z,125
2017-06-30T17:02:10.733Z,125
2017-06-30T17:03:12.148Z,125
2017-06-30T17:04:13.737Z,120
2017-06-30T17:05:15.088Z,120
2017-06-30T17:06:16.603Z,115
2017-06-30T17:07:18.011Z,110
2017-06-30T17:08:19.612Z,105
2017-06-30T17:09:21.074Z,110
2017-06-30T17:10:22.777Z,100
2017-06-30T17:11:24.179Z,100
2017-06-30T17:12:25.860Z,100
2017-06-30T17:13:27.265Z,100
2017-06-30T17:14:28.946Z,100
2017-06-30T17:15:30.354Z,100
2017-06-30T17:16:32.030Z,100
2017-06-30T17:17:33.438Z,95
2017-06-30T17:18:35.114Z,95
2017-06-30T17:19:36.519Z,90
2017-06-30T17:20:38.200Z,85
2017-06-30T17:21:39.606Z,75
2017-06-30T17:22:41.288Z,65
2017-06-30T17:23:42.693Z,65
2017-06-30T17:24:44.100Z,70
2017-06-30T17:25:45.605Z,70
2017-06-30T17:26:47.012Z,80
2017-06-30T17:27:48.420Z,70
2017-06-30T17:28:49.925Z,60
2017-06-30T17:29:51.332Z,55
2017-06-30T17:30:52.740Z,50
2017-06-30T17:31:54.246Z,40
2017-06-30T17:32:55.653Z,35
2017-06-30T17:33:57.057Z,30
2017-06-30T17:34:58.567Z,35
2017-06-30T17:35:59.979Z,40
2017-06-30T17:37:01.384Z,40
2017-06-30T17:38:02.889Z,50
2017-06-30T17:39:04.300Z,55
2017-06-30T17:40:05.703Z,50
2017-06-30T17:41:07.209Z,45
2017-06-30T17:42:08.613Z,45
2017-06-30T17:43:10.302Z,45
2017-06-30T17:44:11.704Z,30
2017-06-30T17:45:13.379Z,25
2017-06-30T17:46:14.788Z,25
2017-06-30T17:47:16.465Z,35
2017-06-30T17:48:17.869Z,45
2017-06-30T17:49:19.580Z,65
2017-06-30T17:50:20.960Z,70
2017-06-30T17:52:31.279Z,70
2017-06-30T17:53:32.672Z,70
2017-06-30T17:54:54.383Z,105
2017-06-30T17:55:55.788Z,110
2017-06-30T17:57:17.788Z,105
2017-06-30T17:58:19.192Z,95
2017-06-30T17:59:41.147Z,85
2017-06-30T18:00:42.548Z,75
2017-06-30T18:02:04.523Z,70
2017-06-30T18:03:05.927Z,65
2017-06-30T18:04:27.869Z,60
2017-06-30T18:05:29.274Z,60
2017-06-30T18:06:51.228Z,60
2017-06-30T18:07:52.631Z,55
2017-06-30T18:09:14.589Z,50
2017-06-30T18:10:15.991Z,50
2017-06-30T18:11:37.949Z,50
2017-06-30T18:12:39.350Z,50
2017-06-30T18:14:01.312Z,50
2017-06-30T18:15:02.712Z,50
2017-06-30T18:16:24.677Z,55
2017-06-30T18:17:26.076Z,60
2017-06-30T18:18:48.033Z,55
2017-06-30T18:19:49.437Z,50
2017-06-30T18:21:11.405Z,40
2017-06-30T18:22:12.911Z,40
2017-06-30T18:23:34.753Z,35
2017-06-30T18:24:36.158Z,35
2017-06-30T18:25:58.116Z,30
2017-06-30T18:26:59.519Z,30
2017-06-30T18:28:21.474Z,25
2017-06-30T18:29:22.875Z,20
2017-06-30T18:30:44.848Z,20
2017-06-30T18:31:46.252Z,20
2017-06-30T18:33:08.195Z,20
2017-06-30T18:34:09.599Z,15
2017-06-30T18:35:31.556Z,20
2017-06-30T18:36:32.957Z,20
2017-06-30T18:38:34.446Z,15
2017-06-30T18:39:35.848Z,20
2017-06-30T18:40:57.806Z,20
2017-06-30T18:41:59.215Z,15
2017-06-30T18:43:21.167Z,15
2017-06-30T18:44:22.601Z,15
2017-06-30T18:45:44.541Z,10
2017-06-30T18:46:45.936Z,10
2017-06-30T18:48:07.891Z,10
2017-06-30T18:49:09.291Z,15
2017-06-30T18:50:31.250Z,10
2017-06-30T18:51:32.656Z,10
2017-06-30T18:52:54.608Z,10
2017-06-30T18:53:56.015Z,15
2017-06-30T18:55:17.967Z,10
2017-06-30T18:56:19.371Z,15
2017-06-30T18:57:41.336Z,10
2017-06-30T18:58:42.736Z,10
2017-06-30T19:00:04.690Z,10
2017-06-30T19:01:06.092Z,10
2017-06-30T19:02:28.065Z,10
2017-06-30T19:03:29.471Z,10
2017-06-30T19:04:51.415Z,10
2017-06-30T19:05:52.816Z,5
2017-06-30T19:07:14.772Z,5
2017-06-30T19:08:16.370Z,5
2017-06-30T19:09:38.334Z,5
2017-06-30T19:10:39.734Z,0
2017-06-30T19:12:41.226Z,0
2017-06-30T19:13:42.622Z,0
2017-06-30T19:15:04.624Z,0
2017-06-30T19:16:05.987Z,0
2017-06-30T19:17:27.972Z,5
2017-06-30T19:18:29.372Z,5
2017-06-30T19:19:51.303Z,5
2017-06-30T19:20:53.344Z,5
2017-06-30T19:22:14.834Z,5
2017-06-30T19:23:16.319Z,5
2017-06-30T19:24:38.000Z,0
2017-06-30T19:25:39.399Z,0
2017-06-30T19:27:01.385Z,0
2017-06-30T19:28:02.786Z,0
2017-06-30T19:29:24.500Z,0
2017-06-30T19:30:25.894Z,0
2017-06-30T19:31:47.899Z,0
2017-06-30T19:32:49.300Z,0
2017-06-30T19:34:11.267Z,0
2017-06-30T19:35:12.666Z,0
2017-06-30T19:37:13.902Z,0
2017-06-30T19:38:15.357Z,0
2017-06-30T19:39:37.308Z,0
2017-06-30T19:40:38.711Z,0
2017-06-30T19:42:00.668Z,0
2017-06-30T19:43:02.068Z,0
2017-06-30T19:44:24.028Z,0
2017-06-30T19:45:25.430Z,0
2017-06-30T19:46:47.390Z,0
2017-06-30T19:47:48.791Z,0
2017-06-30T19:49:10.751Z,0
2017-06-30T19:50:12.153Z,0
2017-06-30T19:51:34.110Z,0
2017-06-30T19:52:35.511Z,0
2017-06-30T19:53:57.472Z,0
2017-06-30T19:54:58.875Z,0
2017-06-30T19:56:20.846Z,0
2017-06-30T19:57:22.245Z,0
2017-06-30T19:58:44.196Z,0
2017-06-30T19:59:45.598Z,0
2017-06-30T20:02:26.605Z,0
2017-06-30T20:03:28.008Z,0
2017-06-30T20:04:49.762Z,0
2017-06-30T20:05:51.162Z,0
2017-06-30T20:07:12.916Z,0
2017-06-30T20:08:14.313Z,0
2017-06-30T20:09:37.861Z,0
